Terminal Aerodrome Forecast
Issued by NWS North Platte, NE

Home | Current Version | Previous Version | Graphics & Text | Print | Product List | Glossary On
Versions: 1 2 3 4 5 6 7 8 9 10 11 12 13
000
FTUS43 KLBF 180500
TAFVTN
TAF
KVTN 180520Z 1806/1906 VRB04KT P6SM SCT200
     FM181600 33012KT P6SM SCT200
     FM190000 33005KT P6SM FEW250=

USA.gov is the U.S. government's official web portal to all federal, state and local government web resources and services.